sensor_id;sensor_type;location;lat;lon;timestamp;temperature;humidity
80234;DHT22;69712;42.142;24.766;2023-06-19T00:01:46;22.40;56.20
80234;DHT22;69712;42.142;24.766;2023-06-19T00:04:11;22.50;55.80
80234;DHT22;69712;42.142;24.766;2023-06-19T00:06:37;22.60;55.50
80234;DHT22;69712;42.142;24.766;2023-06-19T00:09:03;22.50;55.60
80234;DHT22;69712;42.142;24.766;2023-06-19T00:11:29;22.40;55.90
80234;DHT22;69712;42.142;24.766;2023-06-19T00:13:55;22.40;55.90
80234;DHT22;69712;42.142;24.766;2023-06-19T00:16:21;22.50;55.60
80234;DHT22;69712;42.142;24.766;2023-06-19T00:18:47;22.50;55.60
80234;DHT22;69712;42.142;24.766;2023-06-19T00:21:12;22.50;55.60
80234;DHT22;69712;42.142;24.766;2023-06-19T00:23:38;22.50;55.30
80234;DHT22;69712;42.142;24.766;2023-06-19T00:26:04;22.60;55.50
80234;DHT22;69712;42.142;24.766;2023-06-19T00:28:30;22.50;55.60
80234;DHT22;69712;42.142;24.766;2023-06-19T00:30:56;22.40;55.80
80234;DHT22;69712;42.142;24.766;2023-06-19T00:33:22;22.30;55.90
80234;DHT22;69712;42.142;24.766;2023-06-19T00:35:51;22.40;55.70
80234;DHT22;69712;42.142;24.766;2023-06-19T00:38:17;22.30;55.90
80234;DHT22;69712;42.142;24.766;2023-06-19T00:40:43;22.20;56.00
80234;DHT22;69712;42.142;24.766;2023-06-19T00:43:09;22.20;56.40
80234;DHT22;69712;42.142;24.766;2023-06-19T00:45:36;22.10;56.40
80234;DHT22;69712;42.142;24.766;2023-06-19T00:48:02;22.00;56.60
80234;DHT22;69712;42.142;24.766;2023-06-19T00:50:29;22.00;56.70
80234;DHT22;69712;42.142;24.766;2023-06-19T00:52:56;22.00;56.70
80234;DHT22;69712;42.142;24.766;2023-06-19T00:55:26;22.10;56.20
80234;DHT22;69712;42.142;24.766;2023-06-19T00:57:53;22.10;56.20
80234;DHT22;69712;42.142;24.766;2023-06-19T01:00:20;22.00;56.40
80234;DHT22;69712;42.142;24.766;2023-06-19T01:02:46;22.00;56.40
80234;DHT22;69712;42.142;24.766;2023-06-19T01:05:12;22.00;56.10
80234;DHT22;69712;42.142;24.766;2023-06-19T01:10:55;22.00;56.00
80234;DHT22;69712;42.142;24.766;2023-06-19T01:13:40;22.00;56.10
80234;DHT22;69712;42.142;24.766;2023-06-19T01:16:07;22.10;56.00
80234;DHT22;69712;42.142;24.766;2023-06-19T01:18:34;22.00;55.90
80234;DHT22;69712;42.142;24.766;2023-06-19T01:21:16;21.90;56.10
80234;DHT22;69712;42.142;24.766;2023-06-19T01:23:43;22.00;56.00
80234;DHT22;69712;42.142;24.766;2023-06-19T01:26:09;21.90;55.90
80234;DHT22;69712;42.142;24.766;2023-06-19T01:28:36;22.00;55.90
80234;DHT22;69712;42.142;24.766;2023-06-19T01:31:08;21.90;55.90
80234;DHT22;69712;42.142;24.766;2023-06-19T01:33:38;21.90;55.80
80234;DHT22;69712;42.142;24.766;2023-06-19T01:36:06;21.90;56.00
80234;DHT22;69712;42.142;24.766;2023-06-19T01:38:33;21.90;56.10
80234;DHT22;69712;42.142;24.766;2023-06-19T01:41:01;21.90;56.00
80234;DHT22;69712;42.142;24.766;2023-06-19T01:43:30;21.80;56.00
80234;DHT22;69712;42.142;24.766;2023-06-19T01:45:57;21.80;55.70
80234;DHT22;69712;42.142;24.766;2023-06-19T01:48:23;21.80;55.90
80234;DHT22;69712;42.142;24.766;2023-06-19T01:50:50;21.80;56.00
80234;DHT22;69712;42.142;24.766;2023-06-19T01:53:16;21.70;56.00
80234;DHT22;69712;42.142;24.766;2023-06-19T01:55:42;21.80;56.70
80234;DHT22;69712;42.142;24.766;2023-06-19T01:58:08;21.90;55.80
80234;DHT22;69712;42.142;24.766;2023-06-19T02:00:34;21.80;55.50
80234;DHT22;69712;42.142;24.766;2023-06-19T02:03:03;21.80;55.70
80234;DHT22;69712;42.142;24.766;2023-06-19T02:05:29;21.80;55.50
80234;DHT22;69712;42.142;24.766;2023-06-19T02:07:55;21.90;55.10
80234;DHT22;69712;42.142;24.766;2023-06-19T02:10:21;22.00;55.20
80234;DHT22;69712;42.142;24.766;2023-06-19T02:16:09;21.80;55.30
80234;DHT22;69712;42.142;24.766;2023-06-19T02:18:35;21.80;55.50
80234;DHT22;69712;42.142;24.766;2023-06-19T02:21:00;21.90;55.20
80234;DHT22;69712;42.142;24.766;2023-06-19T02:23:26;21.90;55.10
80234;DHT22;69712;42.142;24.766;2023-06-19T02:25:52;21.90;54.90
80234;DHT22;69712;42.142;24.766;2023-06-19T02:28:17;21.90;54.90
80234;DHT22;69712;42.142;24.766;2023-06-19T02:30:43;22.00;54.80
80234;DHT22;69712;42.142;24.766;2023-06-19T02:33:09;22.00;54.50
80234;DHT22;69712;42.142;24.766;2023-06-19T02:35:34;22.10;54.50
80234;DHT22;69712;42.142;24.766;2023-06-19T02:38:00;22.00;54.10
80234;DHT22;69712;42.142;24.766;2023-06-19T02:40:26;22.00;54.80
80234;DHT22;69712;42.142;24.766;2023-06-19T02:42:51;21.90;55.10
80234;DHT22;69712;42.142;24.766;2023-06-19T02:45:17;21.80;54.60
80234;DHT22;69712;42.142;24.766;2023-06-19T02:47:43;21.80;54.80
80234;DHT22;69712;42.142;24.766;2023-06-19T02:50:09;21.80;54.60
80234;DHT22;69712;42.142;24.766;2023-06-19T02:52:35;21.80;54.40
80234;DHT22;69712;42.142;24.766;2023-06-19T02:55:00;21.90;54.50
80234;DHT22;69712;42.142;24.766;2023-06-19T02:57:26;22.00;54.30
80234;DHT22;69712;42.142;24.766;2023-06-19T02:59:52;21.90;54.30
80234;DHT22;69712;42.142;24.766;2023-06-19T03:02:18;22.00;54.00
80234;DHT22;69712;42.142;24.766;2023-06-19T03:04:43;22.00;53.90
80234;DHT22;69712;42.142;24.766;2023-06-19T03:07:12;22.00;53.90
80234;DHT22;69712;42.142;24.766;2023-06-19T03:09:42;22.00;54.10
80234;DHT22;69712;42.142;24.766;2023-06-19T03:12:08;22.00;53.90
80234;DHT22;69712;42.142;24.766;2023-06-19T03:14:34;22.10;53.90
80234;DHT22;69712;42.142;24.766;2023-06-19T03:17:00;22.10;53.80
80234;DHT22;69712;42.142;24.766;2023-06-19T03:19:26;22.10;53.90
80234;DHT22;69712;42.142;24.766;2023-06-19T03:21:52;22.00;54.10
80234;DHT22;69712;42.142;24.766;2023-06-19T03:24:17;22.10;55.40
80234;DHT22;69712;42.142;24.766;2023-06-19T03:26:43;22.10;54.10
80234;DHT22;69712;42.142;24.766;2023-06-19T03:29:09;22.00;54.00
80234;DHT22;69712;42.142;24.766;2023-06-19T03:31:34;22.10;54.10
80234;DHT22;69712;42.142;24.766;2023-06-19T03:34:00;22.10;54.00
80234;DHT22;69712;42.142;24.766;2023-06-19T03:36:26;22.10;54.30
80234;DHT22;69712;42.142;24.766;2023-06-19T03:38:52;22.00;55.20
80234;DHT22;69712;42.142;24.766;2023-06-19T03:41:19;22.00;55.00
80234;DHT22;69712;42.142;24.766;2023-06-19T03:43:44;22.00;54.50
80234;DHT22;69712;42.142;24.766;2023-06-19T03:46:10;22.00;54.40
80234;DHT22;69712;42.142;24.766;2023-06-19T03:48:36;22.00;54.40
80234;DHT22;69712;42.142;24.766;2023-06-19T03:51:01;22.00;54.00
80234;DHT22;69712;42.142;24.766;2023-06-19T03:53:27;22.00;54.30
80234;DHT22;69712;42.142;24.766;2023-06-19T03:55:53;22.00;54.50
80234;DHT22;69712;42.142;24.766;2023-06-19T03:58:19;21.90;54.30
80234;DHT22;69712;42.142;24.766;2023-06-19T04:00:44;22.10;54.20
80234;DHT22;69712;42.142;24.766;2023-06-19T04:03:10;22.20;54.00
80234;DHT22;69712;42.142;24.766;2023-06-19T04:05:36;22.20;54.00
80234;DHT22;69712;42.142;24.766;2023-06-19T04:08:01;22.30;53.90
80234;DHT22;69712;42.142;24.766;2023-06-19T04:10:27;22.20;54.00
80234;DHT22;69712;42.142;24.766;2023-06-19T04:12:53;22.20;54.00
80234;DHT22;69712;42.142;24.766;2023-06-19T04:15:21;22.30;53.80
80234;DHT22;69712;42.142;24.766;2023-06-19T04:17:47;22.20;53.80
80234;DHT22;69712;42.142;24.766;2023-06-19T04:20:13;22.30;53.40
80234;DHT22;69712;42.142;24.766;2023-06-19T04:22:40;22.40;54.50
80234;DHT22;69712;42.142;24.766;2023-06-19T04:25:10;22.40;53.30
80234;DHT22;69712;42.142;24.766;2023-06-19T04:28:01;22.50;53.30
80234;DHT22;69712;42.142;24.766;2023-06-19T04:30:37;22.50;53.00
80234;DHT22;69712;42.142;24.766;2023-06-19T04:33:04;22.40;53.00
80234;DHT22;69712;42.142;24.766;2023-06-19T04:35:31;22.40;53.00
80234;DHT22;69712;42.142;24.766;2023-06-19T04:38:02;22.50;53.40
80234;DHT22;69712;42.142;24.766;2023-06-19T04:40:29;22.50;53.70
80234;DHT22;69712;42.142;24.766;2023-06-19T04:42:55;22.50;53.30
80234;DHT22;69712;42.142;24.766;2023-06-19T04:45:20;22.40;53.10
80234;DHT22;69712;42.142;24.766;2023-06-19T04:47:46;22.40;53.50
80234;DHT22;69712;42.142;24.766;2023-06-19T04:50:12;22.40;53.50
80234;DHT22;69712;42.142;24.766;2023-06-19T04:52:37;22.50;53.20
80234;DHT22;69712;42.142;24.766;2023-06-19T04:55:07;22.50;53.00
80234;DHT22;69712;42.142;24.766;2023-06-19T04:57:36;22.60;52.90
80234;DHT22;69712;42.142;24.766;2023-06-19T05:00:04;22.60;53.30
80234;DHT22;69712;42.142;24.766;2023-06-19T05:02:32;22.70;52.30
80234;DHT22;69712;42.142;24.766;2023-06-19T05:04:58;22.70;52.40
80234;DHT22;69712;42.142;24.766;2023-06-19T05:07:29;22.80;52.40
80234;DHT22;69712;42.142;24.766;2023-06-19T05:09:56;22.80;52.30
80234;DHT22;69712;42.142;24.766;2023-06-19T05:12:22;23.00;51.90
80234;DHT22;69712;42.142;24.766;2023-06-19T05:14:49;23.10;51.80
80234;DHT22;69712;42.142;24.766;2023-06-19T05:17:15;23.10;51.20
80234;DHT22;69712;42.142;24.766;2023-06-19T05:19:41;23.20;50.90
80234;DHT22;69712;42.142;24.766;2023-06-19T05:22:06;23.30;51.20
80234;DHT22;69712;42.142;24.766;2023-06-19T05:24:32;23.40;50.50
80234;DHT22;69712;42.142;24.766;2023-06-19T05:26:58;23.60;50.40
80234;DHT22;69712;42.142;24.766;2023-06-19T05:29:24;23.50;49.80
80234;DHT22;69712;42.142;24.766;2023-06-19T05:31:50;23.50;50.10
80234;DHT22;69712;42.142;24.766;2023-06-19T05:34:16;23.50;50.30
80234;DHT22;69712;42.142;24.766;2023-06-19T05:36:41;23.50;49.50
80234;DHT22;69712;42.142;24.766;2023-06-19T05:39:10;23.60;49.90
80234;DHT22;69712;42.142;24.766;2023-06-19T05:41:36;23.70;50.00
80234;DHT22;69712;42.142;24.766;2023-06-19T05:44:02;23.60;49.90
80234;DHT22;69712;42.142;24.766;2023-06-19T05:46:27;23.60;49.80
80234;DHT22;69712;42.142;24.766;2023-06-19T05:48:53;23.60;49.90
80234;DHT22;69712;42.142;24.766;2023-06-19T05:51:20;23.60;49.70
80234;DHT22;69712;42.142;24.766;2023-06-19T05:53:46;23.80;49.30
80234;DHT22;69712;42.142;24.766;2023-06-19T05:56:12;23.80;49.60
80234;DHT22;69712;42.142;24.766;2023-06-19T05:58:38;23.80;49.50
80234;DHT22;69712;42.142;24.766;2023-06-19T06:01:04;23.80;49.20
80234;DHT22;69712;42.142;24.766;2023-06-19T06:03:30;24.00;49.10
80234;DHT22;69712;42.142;24.766;2023-06-19T06:05:57;24.00;49.00
80234;DHT22;69712;42.142;24.766;2023-06-19T06:08:29;23.90;49.40
80234;DHT22;69712;42.142;24.766;2023-06-19T06:10:55;24.00;49.30
80234;DHT22;69712;42.142;24.766;2023-06-19T06:13:20;24.10;48.90
80234;DHT22;69712;42.142;24.766;2023-06-19T06:15:46;24.10;48.80
80234;DHT22;69712;42.142;24.766;2023-06-19T06:18:12;24.30;48.50
80234;DHT22;69712;42.142;24.766;2023-06-19T06:20:37;24.50;48.30
80234;DHT22;69712;42.142;24.766;2023-06-19T06:23:03;24.70;47.80
80234;DHT22;69712;42.142;24.766;2023-06-19T06:25:29;24.80;47.00
80234;DHT22;69712;42.142;24.766;2023-06-19T06:27:55;24.80;46.60
80234;DHT22;69712;42.142;24.766;2023-06-19T06:30:21;24.90;46.00
80234;DHT22;69712;42.142;24.766;2023-06-19T06:32:48;25.20;45.80
80234;DHT22;69712;42.142;24.766;2023-06-19T06:35:13;25.80;44.90
80234;DHT22;69712;42.142;24.766;2023-06-19T06:37:39;26.30;44.20
80234;DHT22;69712;42.142;24.766;2023-06-19T06:40:07;27.00;42.90
80234;DHT22;69712;42.142;24.766;2023-06-19T06:42:35;27.40;42.20
80234;DHT22;69712;42.142;24.766;2023-06-19T06:45:01;29.00;39.40
80234;DHT22;69712;42.142;24.766;2023-06-19T06:47:26;30.50;36.40
80234;DHT22;69712;42.142;24.766;2023-06-19T06:49:52;30.10;36.30
80234;DHT22;69712;42.142;24.766;2023-06-19T06:52:18;30.30;36.10
80234;DHT22;69712;42.142;24.766;2023-06-19T06:54:43;31.70;34.10
80234;DHT22;69712;42.142;24.766;2023-06-19T06:57:09;32.00;34.20
80234;DHT22;69712;42.142;24.766;2023-06-19T06:59:35;33.20;32.30
80234;DHT22;69712;42.142;24.766;2023-06-19T07:02:01;33.10;32.90
80234;DHT22;69712;42.142;24.766;2023-06-19T07:04:27;33.60;30.60
80234;DHT22;69712;42.142;24.766;2023-06-19T07:06:53;32.50;31.50
80234;DHT22;69712;42.142;24.766;2023-06-19T07:09:18;31.50;33.70
80234;DHT22;69712;42.142;24.766;2023-06-19T07:11:46;32.10;33.80
80234;DHT22;69712;42.142;24.766;2023-06-19T07:14:12;33.20;32.40
80234;DHT22;69712;42.142;24.766;2023-06-19T07:16:38;34.70;30.80
80234;DHT22;69712;42.142;24.766;2023-06-19T07:19:03;35.30;28.70
80234;DHT22;69712;42.142;24.766;2023-06-19T07:21:30;35.70;28.90
80234;DHT22;69712;42.142;24.766;2023-06-19T07:23:56;36.80;27.00
80234;DHT22;69712;42.142;24.766;2023-06-19T07:26:23;35.70;27.80
80234;DHT22;69712;42.142;24.766;2023-06-19T07:28:49;36.40;27.10
80234;DHT22;69712;42.142;24.766;2023-06-19T07:31:15;36.30;27.20
80234;DHT22;69712;42.142;24.766;2023-06-19T07:33:41;36.60;27.00
80234;DHT22;69712;42.142;24.766;2023-06-19T07:36:06;36.10;28.10
80234;DHT22;69712;42.142;24.766;2023-06-19T07:38:32;34.70;28.80
80234;DHT22;69712;42.142;24.766;2023-06-19T07:40:58;33.70;29.30
80234;DHT22;69712;42.142;24.766;2023-06-19T07:43:24;33.20;29.90
80234;DHT22;69712;42.142;24.766;2023-06-19T07:45:50;33.10;30.70
80234;DHT22;69712;42.142;24.766;2023-06-19T07:48:16;34.20;29.40
80234;DHT22;69712;42.142;24.766;2023-06-19T07:50:42;36.10;27.80
80234;DHT22;69712;42.142;24.766;2023-06-19T07:53:07;36.20;27.40
80234;DHT22;69712;42.142;24.766;2023-06-19T07:55:33;34.90;29.00
80234;DHT22;69712;42.142;24.766;2023-06-19T07:58:00;34.30;29.20
80234;DHT22;69712;42.142;24.766;2023-06-19T08:00:26;34.80;28.30
80234;DHT22;69712;42.142;24.766;2023-06-19T08:02:52;34.80;28.50
80234;DHT22;69712;42.142;24.766;2023-06-19T08:05:18;35.10;28.30
80234;DHT22;69712;42.142;24.766;2023-06-19T08:07:44;35.40;28.30
80234;DHT22;69712;42.142;24.766;2023-06-19T08:10:10;35.70;27.80
80234;DHT22;69712;42.142;24.766;2023-06-19T08:12:36;36.60;27.40
80234;DHT22;69712;42.142;24.766;2023-06-19T08:15:02;36.70;26.50
80234;DHT22;69712;42.142;24.766;2023-06-19T08:17:27;38.10;25.50
80234;DHT22;69712;42.142;24.766;2023-06-19T08:19:53;38.50;24.80
80234;DHT22;69712;42.142;24.766;2023-06-19T08:22:19;38.50;24.60
80234;DHT22;69712;42.142;24.766;2023-06-19T08:24:44;39.60;23.80
80234;DHT22;69712;42.142;24.766;2023-06-19T08:27:10;39.40;24.10
80234;DHT22;69712;42.142;24.766;2023-06-19T08:29:36;40.40;23.60
80234;DHT22;69712;42.142;24.766;2023-06-19T08:32:02;41.40;22.70
80234;DHT22;69712;42.142;24.766;2023-06-19T08:34:28;40.70;22.40
80234;DHT22;69712;42.142;24.766;2023-06-19T08:36:53;40.90;22.60
80234;DHT22;69712;42.142;24.766;2023-06-19T08:39:19;41.30;23.10
80234;DHT22;69712;42.142;24.766;2023-06-19T08:41:47;38.50;24.50
80234;DHT22;69712;42.142;24.766;2023-06-19T08:44:13;37.70;24.70
80234;DHT22;69712;42.142;24.766;2023-06-19T08:46:39;38.70;24.40
80234;DHT22;69712;42.142;24.766;2023-06-19T08:49:08;37.80;24.70
80234;DHT22;69712;42.142;24.766;2023-06-19T08:51:35;38.40;24.10
80234;DHT22;69712;42.142;24.766;2023-06-19T08:54:03;39.40;23.60
80234;DHT22;69712;42.142;24.766;2023-06-19T08:56:32;39.10;23.80
80234;DHT22;69712;42.142;24.766;2023-06-19T08:59:14;38.10;24.60
80234;DHT22;69712;42.142;24.766;2023-06-19T09:01:45;36.60;24.70
80234;DHT22;69712;42.142;24.766;2023-06-19T09:04:18;37.70;24.40
80234;DHT22;69712;42.142;24.766;2023-06-19T09:09:18;40.40;22.10
80234;DHT22;69712;42.142;24.766;2023-06-19T09:14:33;41.70;21.10
80234;DHT22;69712;42.142;24.766;2023-06-19T09:17:00;40.20;21.70
80234;DHT22;69712;42.142;24.766;2023-06-19T09:19:26;40.10;22.70
80234;DHT22;69712;42.142;24.766;2023-06-19T09:21:51;40.90;22.30
80234;DHT22;69712;42.142;24.766;2023-06-19T09:24:17;41.30;22.20
80234;DHT22;69712;42.142;24.766;2023-06-19T09:26:43;42.60;20.90
80234;DHT22;69712;42.142;24.766;2023-06-19T09:29:15;42.90;20.50
80234;DHT22;69712;42.142;24.766;2023-06-19T09:31:41;41.80;21.50
80234;DHT22;69712;42.142;24.766;2023-06-19T09:34:07;42.10;21.60
80234;DHT22;69712;42.142;24.766;2023-06-19T09:36:35;42.60;20.30
80234;DHT22;69712;42.142;24.766;2023-06-19T09:39:02;40.90;22.00
80234;DHT22;69712;42.142;24.766;2023-06-19T09:41:30;40.30;22.40
80234;DHT22;69712;42.142;24.766;2023-06-19T09:43:56;40.60;21.40
80234;DHT22;69712;42.142;24.766;2023-06-19T09:46:29;40.40;21.70
80234;DHT22;69712;42.142;24.766;2023-06-19T09:49:00;42.00;20.80
80234;DHT22;69712;42.142;24.766;2023-06-19T09:51:41;42.50;21.40
80234;DHT22;69712;42.142;24.766;2023-06-19T09:54:09;42.50;20.00
80234;DHT22;69712;42.142;24.766;2023-06-19T09:56:35;42.50;19.70
80234;DHT22;69712;42.142;24.766;2023-06-19T09:59:04;42.50;19.90
80234;DHT22;69712;42.142;24.766;2023-06-19T10:01:31;42.10;20.10
80234;DHT22;69712;42.142;24.766;2023-06-19T10:04:08;41.90;20.60
80234;DHT22;69712;42.142;24.766;2023-06-19T10:06:54;40.70;21.50
80234;DHT22;69712;42.142;24.766;2023-06-19T10:09:22;40.80;21.10
80234;DHT22;69712;42.142;24.766;2023-06-19T10:11:52;40.00;21.60
80234;DHT22;69712;42.142;24.766;2023-06-19T10:14:22;39.40;23.00
80234;DHT22;69712;42.142;24.766;2023-06-19T10:16:48;39.00;22.60
80234;DHT22;69712;42.142;24.766;2023-06-19T10:19:18;37.80;23.80
80234;DHT22;69712;42.142;24.766;2023-06-19T10:21:52;36.30;25.30
80234;DHT22;69712;42.142;24.766;2023-06-19T10:24:19;37.50;24.10
80234;DHT22;69712;42.142;24.766;2023-06-19T10:27:05;39.20;22.90
80234;DHT22;69712;42.142;24.766;2023-06-19T10:29:40;40.30;21.90
80234;DHT22;69712;42.142;24.766;2023-06-19T10:32:06;38.30;23.40
80234;DHT22;69712;42.142;24.766;2023-06-19T10:34:36;38.60;22.80
80234;DHT22;69712;42.142;24.766;2023-06-19T10:37:02;40.10;22.10
80234;DHT22;69712;42.142;24.766;2023-06-19T10:39:28;40.20;21.30
80234;DHT22;69712;42.142;24.766;2023-06-19T10:41:53;39.80;21.90
80234;DHT22;69712;42.142;24.766;2023-06-19T10:44:23;39.70;21.60
80234;DHT22;69712;42.142;24.766;2023-06-19T10:46:52;40.90;20.80
80234;DHT22;69712;42.142;24.766;2023-06-19T10:49:21;41.20;20.30
80234;DHT22;69712;42.142;24.766;2023-06-19T10:51:48;41.40;20.10
80234;DHT22;69712;42.142;24.766;2023-06-19T10:54:14;41.50;20.10
80234;DHT22;69712;42.142;24.766;2023-06-19T10:56:40;40.90;21.40
80234;DHT22;69712;42.142;24.766;2023-06-19T10:59:07;41.60;20.10
80234;DHT22;69712;42.142;24.766;2023-06-19T11:01:42;42.60;19.70
80234;DHT22;69712;42.142;24.766;2023-06-19T11:04:09;41.90;19.90
80234;DHT22;69712;42.142;24.766;2023-06-19T11:06:36;42.60;19.70
80234;DHT22;69712;42.142;24.766;2023-06-19T11:09:03;42.90;19.80
80234;DHT22;69712;42.142;24.766;2023-06-19T11:14:06;42.50;20.00
80234;DHT22;69712;42.142;24.766;2023-06-19T11:16:42;42.00;20.10
80234;DHT22;69712;42.142;24.766;2023-06-19T11:19:09;42.50;20.00
80234;DHT22;69712;42.142;24.766;2023-06-19T11:21:37;42.10;20.20
80234;DHT22;69712;42.142;24.766;2023-06-19T11:24:11;42.40;19.70
80234;DHT22;69712;42.142;24.766;2023-06-19T11:26:42;42.80;18.90
80234;DHT22;69712;42.142;24.766;2023-06-19T11:29:19;42.80;19.20
80234;DHT22;69712;42.142;24.766;2023-06-19T11:31:46;43.20;18.80
80234;DHT22;69712;42.142;24.766;2023-06-19T11:34:13;42.90;19.10
80234;DHT22;69712;42.142;24.766;2023-06-19T11:36:40;41.80;20.00
80234;DHT22;69712;42.142;24.766;2023-06-19T11:39:13;42.60;19.40
80234;DHT22;69712;42.142;24.766;2023-06-19T11:41:39;42.70;19.10
80234;DHT22;69712;42.142;24.766;2023-06-19T11:44:07;43.30;18.60
80234;DHT22;69712;42.142;24.766;2023-06-19T11:46:35;42.90;19.10
80234;DHT22;69712;42.142;24.766;2023-06-19T11:49:14;42.30;19.10
80234;DHT22;69712;42.142;24.766;2023-06-19T11:51:42;41.20;19.50
80234;DHT22;69712;42.142;24.766;2023-06-19T11:54:09;41.80;19.90
80234;DHT22;69712;42.142;24.766;2023-06-19T11:56:36;40.60;20.20
80234;DHT22;69712;42.142;24.766;2023-06-19T11:59:02;41.50;20.20
80234;DHT22;69712;42.142;24.766;2023-06-19T12:01:35;41.20;20.30
80234;DHT22;69712;42.142;24.766;2023-06-19T12:04:02;41.20;20.30
80234;DHT22;69712;42.142;24.766;2023-06-19T12:06:28;41.70;19.40
80234;DHT22;69712;42.142;24.766;2023-06-19T12:08:54;41.40;20.40
80234;DHT22;69712;42.142;24.766;2023-06-19T12:11:20;40.60;20.50
80234;DHT22;69712;42.142;24.766;2023-06-19T12:13:46;40.10;20.70
80234;DHT22;69712;42.142;24.766;2023-06-19T12:16:12;40.30;20.80
80234;DHT22;69712;42.142;24.766;2023-06-19T12:18:38;39.30;22.00
80234;DHT22;69712;42.142;24.766;2023-06-19T12:21:03;37.60;22.80
80234;DHT22;69712;42.142;24.766;2023-06-19T12:23:29;36.10;24.50
80234;DHT22;69712;42.142;24.766;2023-06-19T12:25:55;36.10;23.70
80234;DHT22;69712;42.142;24.766;2023-06-19T12:28:21;36.10;24.00
80234;DHT22;69712;42.142;24.766;2023-06-19T12:30:48;36.20;24.40
80234;DHT22;69712;42.142;24.766;2023-06-19T12:33:17;36.30;23.30
80234;DHT22;69712;42.142;24.766;2023-06-19T12:35:44;37.10;23.50
80234;DHT22;69712;42.142;24.766;2023-06-19T12:38:10;37.20;22.50
80234;DHT22;69712;42.142;24.766;2023-06-19T12:41:02;38.30;21.50
80234;DHT22;69712;42.142;24.766;2023-06-19T12:43:36;39.00;21.80
80234;DHT22;69712;42.142;24.766;2023-06-19T12:46:01;40.00;20.50
80234;DHT22;69712;42.142;24.766;2023-06-19T12:48:28;39.20;20.90
80234;DHT22;69712;42.142;24.766;2023-06-19T12:50:54;39.30;20.50
80234;DHT22;69712;42.142;24.766;2023-06-19T12:53:19;39.30;20.80
80234;DHT22;69712;42.142;24.766;2023-06-19T12:55:47;39.50;20.30
80234;DHT22;69712;42.142;24.766;2023-06-19T12:58:12;39.40;20.50
80234;DHT22;69712;42.142;24.766;2023-06-19T13:00:39;39.90;19.90
80234;DHT22;69712;42.142;24.766;2023-06-19T13:03:04;39.70;20.30
80234;DHT22;69712;42.142;24.766;2023-06-19T13:05:30;39.90;20.00
80234;DHT22;69712;42.142;24.766;2023-06-19T13:07:56;41.00;19.40
80234;DHT22;69712;42.142;24.766;2023-06-19T13:10:30;40.70;19.70
80234;DHT22;69712;42.142;24.766;2023-06-19T13:12:56;39.10;20.70
80234;DHT22;69712;42.142;24.766;2023-06-19T13:15:24;40.30;20.30
80234;DHT22;69712;42.142;24.766;2023-06-19T13:17:50;40.60;20.20
80234;DHT22;69712;42.142;24.766;2023-06-19T13:20:16;39.50;20.00
80234;DHT22;69712;42.142;24.766;2023-06-19T13:22:57;38.70;20.60
80234;DHT22;69712;42.142;24.766;2023-06-19T13:25:23;38.90;21.20
80234;DHT22;69712;42.142;24.766;2023-06-19T13:27:49;40.30;20.20
80234;DHT22;69712;42.142;24.766;2023-06-19T13:30:15;40.90;19.40
80234;DHT22;69712;42.142;24.766;2023-06-19T13:32:41;40.00;20.00
80234;DHT22;69712;42.142;24.766;2023-06-19T13:35:07;39.10;20.50
80234;DHT22;69712;42.142;24.766;2023-06-19T13:37:35;37.90;22.00
80234;DHT22;69712;42.142;24.766;2023-06-19T13:40:01;36.90;23.00
80234;DHT22;69712;42.142;24.766;2023-06-19T13:42:29;36.40;23.20
80234;DHT22;69712;42.142;24.766;2023-06-19T13:44:55;35.40;24.00
80234;DHT22;69712;42.142;24.766;2023-06-19T13:47:20;35.20;25.50
80234;DHT22;69712;42.142;24.766;2023-06-19T13:49:46;34.90;25.80
80234;DHT22;69712;42.142;24.766;2023-06-19T13:52:12;34.90;25.20
80234;DHT22;69712;42.142;24.766;2023-06-19T13:54:37;34.50;26.40
80234;DHT22;69712;42.142;24.766;2023-06-19T13:57:03;34.00;26.80
80234;DHT22;69712;42.142;24.766;2023-06-19T13:59:29;33.60;27.50
80234;DHT22;69712;42.142;24.766;2023-06-19T14:01:55;33.40;28.00
80234;DHT22;69712;42.142;24.766;2023-06-19T14:04:21;33.00;28.60
80234;DHT22;69712;42.142;24.766;2023-06-19T14:06:47;33.10;28.60
80234;DHT22;69712;42.142;24.766;2023-06-19T14:09:13;33.00;28.90
80234;DHT22;69712;42.142;24.766;2023-06-19T14:11:39;32.90;29.00
80234;DHT22;69712;42.142;24.766;2023-06-19T14:14:04;32.90;29.10
80234;DHT22;69712;42.142;24.766;2023-06-19T14:16:30;32.60;29.30
80234;DHT22;69712;42.142;24.766;2023-06-19T14:18:56;32.30;29.30
80234;DHT22;69712;42.142;24.766;2023-06-19T14:21:22;32.20;29.40
80234;DHT22;69712;42.142;24.766;2023-06-19T14:23:49;32.20;29.70
80234;DHT22;69712;42.142;24.766;2023-06-19T14:26:15;31.90;30.00
80234;DHT22;69712;42.142;24.766;2023-06-19T14:28:41;31.80;29.90
80234;DHT22;69712;42.142;24.766;2023-06-19T14:31:06;31.80;30.30
80234;DHT22;69712;42.142;24.766;2023-06-19T14:33:32;31.70;30.20
80234;DHT22;69712;42.142;24.766;2023-06-19T14:36:00;31.70;30.60
80234;DHT22;69712;42.142;24.766;2023-06-19T14:38:27;31.70;30.40
80234;DHT22;69712;42.142;24.766;2023-06-19T14:40:57;31.80;30.30
80234;DHT22;69712;42.142;24.766;2023-06-19T14:43:24;31.80;30.40
80234;DHT22;69712;42.142;24.766;2023-06-19T14:45:49;31.70;31.10
80234;DHT22;69712;42.142;24.766;2023-06-19T14:48:15;31.70;31.10
80234;DHT22;69712;42.142;24.766;2023-06-19T14:50:41;31.60;31.30
80234;DHT22;69712;42.142;24.766;2023-06-19T14:53:07;31.70;31.60
80234;DHT22;69712;42.142;24.766;2023-06-19T14:55:32;31.70;32.50
80234;DHT22;69712;42.142;24.766;2023-06-19T14:57:58;31.60;32.50
80234;DHT22;69712;42.142;24.766;2023-06-19T15:00:24;31.50;33.00
80234;DHT22;69712;42.142;24.766;2023-06-19T15:02:50;31.50;33.30
80234;DHT22;69712;42.142;24.766;2023-06-19T15:05:15;31.40;33.50
80234;DHT22;69712;42.142;24.766;2023-06-19T15:07:41;31.40;34.30
80234;DHT22;69712;42.142;24.766;2023-06-19T15:10:07;31.50;33.30
80234;DHT22;69712;42.142;24.766;2023-06-19T15:12:33;31.50;33.10
80234;DHT22;69712;42.142;24.766;2023-06-19T15:15:00;31.50;33.10
80234;DHT22;69712;42.142;24.766;2023-06-19T15:17:26;31.50;33.20
80234;DHT22;69712;42.142;24.766;2023-06-19T15:19:52;31.60;33.20
80234;DHT22;69712;42.142;24.766;2023-06-19T15:22:17;31.60;32.30
80234;DHT22;69712;42.142;24.766;2023-06-19T15:24:43;31.70;32.70
80234;DHT22;69712;42.142;24.766;2023-06-19T15:27:09;31.70;32.30
80234;DHT22;69712;42.142;24.766;2023-06-19T15:29:34;31.80;32.30